createdAt,value
2022-09-14T00:00:00.566Z,981.3442
2022-09-14T00:01:23.684Z,981.2727
2022-09-14T00:02:00.912Z,981.1717
2022-09-14T00:03:01.117Z,981.2588
2022-09-14T00:04:01.150Z,981.2303
2022-09-14T00:05:00.299Z,981.3458
2022-09-14T00:06:00.454Z,981.1717
2022-09-14T00:07:00.576Z,981.2075
2022-09-14T00:08:00.723Z,981.1717
2022-09-14T00:09:00.888Z,981.1717
2022-09-14T00:10:01.024Z,981.1561
2022-09-14T00:11:01.156Z,981.1857
2022-09-14T00:12:00.309Z,981.2655
2022-09-14T00:13:00.491Z,981.0914
2022-09-14T00:14:00.632Z,981.2432
2022-09-14T00:15:00.763Z,981.0696
2022-09-14T00:16:00.910Z,981.1561
2022-09-14T00:17:01.106Z,981.1048
2022-09-14T00:18:01.200Z,981.0607
2022-09-14T00:19:00.384Z,981.0384
2022-09-14T00:20:00.494Z,981.0451
2022-09-14T00:21:00.638Z,980.958
2022-09-14T00:22:00.786Z,981.1032
2022-09-14T00:23:00.934Z,980.9
2022-09-14T00:24:01.097Z,980.9871
2022-09-14T00:25:01.238Z,980.871
2022-09-14T00:26:00.371Z,980.9871
2022-09-14T00:27:00.522Z,980.9446
2022-09-14T00:28:00.669Z,980.9446
2022-09-14T00:29:00.827Z,980.8866
2022-09-14T00:30:00.976Z,980.8436
2022-09-14T00:31:01.147Z,980.8285
2022-09-14T00:32:00.401Z,980.9446
2022-09-14T00:33:00.408Z,980.9597
2022-09-14T00:34:00.562Z,980.8815
2022-09-14T00:35:00.698Z,980.795
2022-09-14T00:36:00.871Z,980.8525
2022-09-14T00:37:01.000Z,980.7074
2022-09-14T00:38:01.148Z,980.6923
2022-09-14T00:39:00.319Z,980.598
2022-09-14T00:40:00.540Z,980.4892
2022-09-14T00:41:00.592Z,980.5467
2022-09-14T00:42:00.748Z,980.5472
2022-09-14T00:43:00.889Z,980.511
2022-09-14T00:44:01.052Z,980.511
2022-09-14T00:45:01.178Z,980.4016
2022-09-14T00:46:00.453Z,980.4373
2022-09-14T00:47:00.488Z,980.4953
2022-09-14T00:48:00.634Z,980.3725
2022-09-14T00:49:00.796Z,980.3658
2022-09-14T00:50:00.940Z,980.5176
2022-09-14T00:51:01.076Z,980.5824
2022-09-14T00:52:01.253Z,980.4311
2022-09-14T00:53:00.367Z,980.3658
2022-09-14T00:54:00.544Z,980.5338
2022-09-14T00:55:00.671Z,980.5266
2022-09-14T00:56:00.810Z,980.4775
2022-09-14T00:57:00.972Z,980.4122
2022-09-14T00:58:01.118Z,980.4836
2022-09-14T00:59:00.280Z,980.4395
2022-09-14T01:00:00.446Z,980.4685
2022-09-14T01:01:00.635Z,980.4105
2022-09-14T01:02:00.758Z,980.2944
2022-09-14T01:03:00.866Z,980.4178
2022-09-14T01:04:01.017Z,980.2944
2022-09-14T01:05:01.184Z,980.4395
2022-09-14T01:06:00.314Z,980.4462
2022-09-14T01:07:00.445Z,980.4105
2022-09-14T01:08:00.598Z,980.4842
2022-09-14T01:09:00.755Z,980.6136
2022-09-14T01:10:00.921Z,980.3971
2022-09-14T01:11:01.070Z,980.5132
2022-09-14T01:12:01.213Z,980.3837
2022-09-14T01:13:00.364Z,980.4412
2022-09-14T01:14:00.518Z,980.3837
2022-09-14T01:15:00.660Z,980.4122
2022-09-14T01:16:00.865Z,980.3698
2022-09-14T01:17:00.964Z,980.4211
2022-09-14T01:18:01.100Z,980.5439
2022-09-14T01:20:00.381Z,980.5082
2022-09-14T01:21:00.498Z,980.4501
2022-09-14T01:22:00.656Z,980.4501
2022-09-14T01:23:00.802Z,980.3698
2022-09-14T01:24:00.943Z,980.3631
2022-09-14T01:25:01.119Z,980.2554
2022-09-14T01:26:01.242Z,980.4295
2022-09-14T01:27:00.388Z,980.3715
2022-09-14T01:28:00.527Z,980.5165
2022-09-14T01:29:00.680Z,980.3425
2022-09-14T01:30:00.856Z,980.4585
2022-09-14T01:31:00.991Z,980.3201
2022-09-14T01:32:01.183Z,980.4652
2022-09-14T01:33:00.294Z,980.3425
2022-09-14T01:34:00.425Z,980.4295
2022-09-14T01:35:00.601Z,980.4022
2022-09-14T01:36:00.744Z,980.3151
2022-09-14T01:37:00.870Z,980.2437
2022-09-14T01:38:01.018Z,980.237
2022-09-14T01:39:01.159Z,980.188
2022-09-14T01:40:00.384Z,980.3888
2022-09-14T01:41:00.459Z,980.1657
2022-09-14T01:42:00.612Z,980.2437
2022-09-14T01:43:00.739Z,980.188
2022-09-14T01:44:00.881Z,980.13
2022-09-14T01:45:01.026Z,980.2437
2022-09-14T01:46:01.280Z,980.0648
2022-09-14T01:47:00.344Z,980.0586
2022-09-14T01:48:00.489Z,980.2594
2022-09-14T01:49:00.609Z,980.2527
2022-09-14T01:50:00.762Z,980.13
2022-09-14T01:51:00.915Z,980.1613
2022-09-14T01:52:01.064Z,980.1764
2022-09-14T01:53:01.233Z,980.3124
2022-09-14T01:54:00.354Z,980.0693
2022-09-14T01:55:00.516Z,980.1764
2022-09-14T01:56:00.652Z,980.2393
2022-09-14T01:57:00.797Z,980.1184
2022-09-14T01:58:00.962Z,980.2973
2022-09-14T01:59:01.126Z,980.2544
2022-09-14T02:00:01.243Z,980.2834
2022-09-14T02:01:00.442Z,980.1897
2022-09-14T02:02:00.617Z,980.3034
2022-09-14T02:03:00.697Z,980.1541
2022-09-14T02:04:00.886Z,980.1613
2022-09-14T02:05:01.009Z,980.1764
2022-09-14T02:06:01.156Z,980.2677
2022-09-14T02:07:00.296Z,980.2744
2022-09-14T02:08:00.447Z,980.2304
2022-09-14T02:09:00.620Z,980.3464
2022-09-14T02:10:00.739Z,980.188
2022-09-14T02:11:00.884Z,980.188
2022-09-14T02:12:01.051Z,980.3241
2022-09-14T02:13:01.183Z,980.2214
2022-09-14T02:14:00.342Z,980.2794
2022-09-14T02:15:00.475Z,980.1724
2022-09-14T02:16:00.661Z,980.2644
2022-09-14T02:17:00.774Z,980.2571
2022-09-14T02:18:00.924Z,980.1077
2022-09-14T02:19:01.080Z,980.3151
2022-09-14T02:20:01.199Z,980.3134
2022-09-14T02:21:00.355Z,980.2844
2022-09-14T02:22:00.494Z,980.1501
2022-09-14T02:23:00.656Z,980.2264
2022-09-14T02:24:00.815Z,980.1573
2022-09-14T02:25:00.948Z,980.1573
2022-09-14T02:26:01.086Z,980.1573
2022-09-14T02:27:01.223Z,980.1791
2022-09-14T02:28:00.373Z,980.2844
2022-09-14T02:29:00.537Z,980.2354
2022-09-14T02:30:00.699Z,980.1501
2022-09-14T02:31:00.872Z,980.1211
2022-09-14T02:32:00.962Z,980.1283
2022-09-14T02:33:01.107Z,980.1774
2022-09-14T02:34:00.259Z,980.1774
2022-09-14T02:35:00.404Z,980.1484
2022-09-14T02:36:00.540Z,980.1037
2022-09-14T02:37:00.683Z,980.169
2022-09-14T02:38:00.845Z,980.232
2022-09-14T02:39:00.992Z,980.1891
2022-09-14T02:40:01.237Z,980.073
2022-09-14T02:41:00.280Z,980.073
2022-09-14T02:42:00.424Z,980.1673
2022-09-14T02:43:00.569Z,980.3034
2022-09-14T02:44:00.719Z,980.116
2022-09-14T02:45:00.875Z,980.2224
2022-09-14T02:46:01.002Z,980.2961
2022-09-14T02:47:01.195Z,980.16
2022-09-14T02:48:00.302Z,980.1896
2022-09-14T02:49:00.469Z,980.1891
2022-09-14T02:50:00.596Z,980.0886
2022-09-14T02:51:00.743Z,980.16
2022-09-14T02:52:00.890Z,980.1891
2022-09-14T02:53:01.033Z,980.0596
2022-09-14T02:54:01.213Z,979.9659
2022-09-14T02:55:00.320Z,980.1177
2022-09-14T02:56:00.470Z,980.0886
2022-09-14T02:57:00.620Z,980.01
2022-09-14T02:58:00.771Z,980.068
2022-09-14T02:59:00.944Z,980.082
2022-09-14T03:00:01.068Z,980.0529
2022-09-14T03:01:01.279Z,980.0306
2022-09-14T03:02:00.467Z,980.0155
2022-09-14T03:03:00.508Z,980.0155
2022-09-14T03:04:00.689Z,980.044
2022-09-14T03:05:00.820Z,979.8855
2022-09-14T03:06:00.971Z,979.8855
2022-09-14T03:07:01.121Z,979.9369
2022-09-14T03:08:00.258Z,979.9296
2022-09-14T03:09:00.425Z,979.8169
2022-09-14T03:10:00.594Z,979.8939
2022-09-14T03:11:00.707Z,979.9163
2022-09-14T03:12:00.852Z,979.9296
2022-09-14T03:13:01.000Z,979.7879
2022-09-14T03:14:01.140Z,979.8583
2022-09-14T03:15:00.326Z,979.8939
2022-09-14T03:16:00.499Z,979.7812
2022-09-14T03:17:00.588Z,979.7589
2022-09-14T03:18:00.735Z,979.7879
2022-09-14T03:19:00.880Z,979.7009
2022-09-14T03:20:01.051Z,979.7148
2022-09-14T03:21:01.167Z,979.6138
2022-09-14T03:22:00.320Z,979.5781
2022-09-14T03:23:00.459Z,979.7299
2022-09-14T03:24:00.599Z,979.6362
2022-09-14T03:25:00.777Z,979.7232
2022-09-14T03:26:00.902Z,979.7812
2022-09-14T03:27:01.043Z,979.8583
2022-09-14T03:28:01.195Z,979.6362
2022-09-14T03:29:00.376Z,979.6362
2022-09-14T03:30:00.534Z,979.4421
2022-09-14T03:31:00.732Z,979.6362
2022-09-14T03:32:00.792Z,979.6942
2022-09-14T03:33:00.941Z,979.8583
2022-09-14T03:34:01.097Z,979.6362
2022-09-14T03:35:01.271Z,979.4348
2022-09-14T03:36:00.403Z,979.6652
2022-09-14T03:37:00.540Z,979.5781
2022-09-14T03:38:00.689Z,979.5491
2022-09-14T03:39:00.834Z,979.4131
2022-09-14T03:40:01.063Z,979.6022
2022-09-14T03:41:01.133Z,979.4282
2022-09-14T03:42:00.275Z,979.5871
2022-09-14T03:43:00.435Z,979.4131
2022-09-14T03:44:00.566Z,979.5781
2022-09-14T03:45:00.744Z,979.4911
2022-09-14T03:46:00.897Z,979.3841
2022-09-14T03:47:01.086Z,979.4131
2022-09-14T03:48:01.169Z,979.5219
2022-09-14T03:49:00.315Z,979.4638
2022-09-14T03:50:00.463Z,979.6669
2022-09-14T03:51:00.627Z,979.3278
2022-09-14T03:52:00.763Z,979.5309
2022-09-14T03:53:00.909Z,979.4729
2022-09-14T03:54:01.064Z,979.4438
2022-09-14T03:55:01.217Z,979.4729
2022-09-14T03:56:00.375Z,979.3568
2022-09-14T03:57:00.515Z,979.5201
2022-09-14T03:58:00.664Z,979.4131
2022-09-14T03:59:00.804Z,979.4041
2022-09-14T04:00:00.950Z,979.4041
2022-09-14T04:01:01.115Z,979.4131
2022-09-14T04:02:01.354Z,979.3121
2022-09-14T04:03:00.449Z,979.3188
2022-09-14T04:04:00.568Z,979.3478
2022-09-14T04:05:00.703Z,979.5201
2022-09-14T04:06:00.856Z,979.2541
2022-09-14T04:07:01.005Z,979.3551
2022-09-14T04:08:01.120Z,979.2541
2022-09-14T04:09:00.270Z,979.3768
2022-09-14T04:10:00.426Z,979.2831
2022-09-14T04:11:00.585Z,979.3702
2022-09-14T04:12:00.755Z,979.4058
2022-09-14T04:13:00.862Z,979.3992
2022-09-14T04:14:01.019Z,979.3411
2022-09-14T04:15:01.172Z,979.3635
2022-09-14T04:16:00.384Z,979.4041
2022-09-14T04:17:00.473Z,979.326
2022-09-14T04:18:01.604Z,979.297
2022-09-14T04:19:00.768Z,979.297
2022-09-14T04:20:00.911Z,979.4621
2022-09-14T04:21:05.736Z,979.4331
2022-09-14T04:22:01.247Z,979.4041
2022-09-14T04:23:00.361Z,979.4397
2022-09-14T04:24:14.596Z,979.4041
2022-09-14T04:25:00.666Z,979.4041
2022-09-14T04:26:00.824Z,979.4331
2022-09-14T04:27:00.983Z,979.4621
2022-09-14T04:28:19.245Z,979.4041
2022-09-14T04:29:00.268Z,979.4621
2022-09-14T04:30:00.424Z,979.4131
2022-09-14T04:31:00.597Z,979.4621
2022-09-14T04:32:00.716Z,979.5491
2022-09-14T04:33:00.856Z,979.5799
2022-09-14T04:34:01.032Z,979.4505
2022-09-14T04:35:01.144Z,979.5509
2022-09-14T04:36:00.292Z,979.4282
2022-09-14T04:37:00.460Z,979.5219
2022-09-14T04:38:00.607Z,979.4348
2022-09-14T04:39:00.770Z,979.4131
2022-09-14T04:40:00.957Z,979.5491
2022-09-14T04:41:01.035Z,979.4041
2022-09-14T04:42:01.207Z,979.4397
2022-09-14T04:43:00.322Z,979.4827
2022-09-14T04:44:00.488Z,979.4397
2022-09-14T04:45:00.612Z,979.4978
2022-09-14T04:46:00.771Z,979.3086
2022-09-14T04:47:00.941Z,979.4827
2022-09-14T04:48:01.061Z,979.5183
2022-09-14T04:49:01.218Z,979.4827
2022-09-14T04:50:00.342Z,979.5183
2022-09-14T04:52:00.688Z,979.5183
2022-09-14T04:53:00.779Z,979.2862
2022-09-14T04:54:00.932Z,979.2657
2022-09-14T04:55:01.063Z,979.4827
2022-09-14T04:56:01.214Z,979.2366
2022-09-14T04:57:00.351Z,979.4397
2022-09-14T04:58:00.498Z,979.4397
2022-09-14T04:59:00.655Z,979.3013
2022-09-14T05:00:00.792Z,979.4754
2022-09-14T05:01:00.947Z,979.4397
2022-09-14T05:02:01.204Z,979.4827
2022-09-14T05:03:01.340Z,979.4397
2022-09-14T05:04:00.410Z,979.4041
2022-09-14T05:05:00.532Z,979.2657
2022-09-14T05:06:00.679Z,979.4827
2022-09-14T05:07:00.836Z,979.2366
2022-09-14T05:08:00.967Z,979.2076
2022-09-14T05:09:01.153Z,979.2862
2022-09-14T05:10:01.252Z,979.2282
2022-09-14T05:11:00.412Z,979.4827
2022-09-14T05:12:00.552Z,979.23
2022-09-14T05:13:00.711Z,979.23
2022-09-14T05:14:00.861Z,979.4041
2022-09-14T05:15:00.989Z,979.4397
2022-09-14T05:16:01.206Z,979.2076
2022-09-14T05:17:00.293Z,979.2076
2022-09-14T05:18:00.422Z,979.2506
2022-09-14T05:19:00.575Z,979.5183
2022-09-14T05:20:00.720Z,979.5183
2022-09-14T05:21:04.000Z,979.5183
2022-09-14T05:22:01.010Z,979.2711
2022-09-14T05:23:01.145Z,979.1907
2022-09-14T05:24:00.297Z,979.1974
2022-09-14T05:25:00.445Z,979.2488
2022-09-14T05:26:00.617Z,979.2554
2022-09-14T05:27:02.225Z,979.3068
2022-09-14T05:28:00.897Z,979.2125
2022-09-14T05:29:01.051Z,979.2839
2022-09-14T05:30:01.204Z,979.2554
2022-09-14T05:31:00.391Z,979.3648
2022-09-14T05:32:00.526Z,979.3268
2022-09-14T05:33:00.651Z,979.3558
2022-09-14T05:34:00.803Z,979.2978
2022-09-14T05:35:00.957Z,979.4005
2022-09-14T05:36:01.108Z,979.2107
2022-09-14T05:37:01.274Z,979.276
2022-09-14T05:38:00.396Z,979.276
2022-09-14T05:39:00.542Z,979.2821
2022-09-14T05:40:00.771Z,979.3111
2022-09-14T05:41:00.868Z,979.3244
2022-09-14T05:42:01.029Z,979.3244
2022-09-14T05:43:01.159Z,979.3027
2022-09-14T05:44:00.299Z,979.3093
2022-09-14T05:45:00.459Z,979.1285
2022-09-14T05:46:00.644Z,979.2664
2022-09-14T05:47:00.782Z,979.2803
2022-09-14T05:48:00.912Z,979.1642
2022-09-14T05:49:01.064Z,979.1642
2022-09-14T05:50:01.209Z,979.1128
2022-09-14T05:51:00.348Z,979.1195
2022-09-14T05:52:00.521Z,979.1775
2022-09-14T05:53:00.643Z,979.2713
2022-09-14T05:54:00.797Z,979.0614
2022-09-14T05:55:00.952Z,979.14
2022-09-14T05:56:01.098Z,978.9949
2022-09-14T05:57:01.277Z,979.0663
2022-09-14T05:58:00.393Z,979.1237
2022-09-14T05:59:00.607Z,978.9786
2022-09-14T06:00:00.682Z,979.0857
2022-09-14T06:01:00.837Z,979.0276
2022-09-14T06:02:01.050Z,978.9762
2022-09-14T06:03:01.163Z,979.0342
2022-09-14T06:04:00.282Z,979.0633
2022-09-14T06:05:00.461Z,978.9901
2022-09-14T06:06:00.564Z,979.0034
2022-09-14T06:07:17.929Z,979.1196
2022-09-14T06:08:00.874Z,978.9587
2022-09-14T06:09:01.024Z,978.9006
2022-09-14T06:10:01.144Z,978.9786
2022-09-14T06:11:00.304Z,978.9496
2022-09-14T06:12:00.464Z,978.9496
2022-09-14T06:13:00.593Z,978.8625
2022-09-14T06:14:00.740Z,978.8988
2022-09-14T06:15:00.882Z,978.9496
2022-09-14T06:16:01.026Z,979.0791
2022-09-14T06:17:01.190Z,978.8758
2022-09-14T06:18:00.318Z,979.0416
2022-09-14T06:19:00.459Z,978.8673
2022-09-14T06:20:04.350Z,978.903
2022-09-14T06:21:00.751Z,978.903
2022-09-14T06:22:00.924Z,978.9889
2022-09-14T06:23:01.042Z,979.1051
2022-09-14T06:24:01.189Z,978.9889
2022-09-14T06:25:00.336Z,979.0246
2022-09-14T06:26:00.488Z,979.0531
2022-09-14T06:27:00.633Z,979.0603
2022-09-14T06:28:00.784Z,978.7118
2022-09-14T06:29:00.931Z,979.0961
2022-09-14T06:30:01.101Z,978.7541
2022-09-14T06:31:01.220Z,978.9417
2022-09-14T06:32:00.353Z,978.8546
2022-09-14T06:33:00.524Z,978.897
2022-09-14T06:34:00.650Z,978.7807
2022-09-14T06:35:00.879Z,978.8098
2022-09-14T06:36:00.932Z,978.8951
2022-09-14T06:37:01.113Z,978.6137
2022-09-14T06:38:01.267Z,978.9315
2022-09-14T06:39:00.399Z,978.8443
2022-09-14T06:40:00.579Z,978.8146
2022-09-14T06:41:00.695Z,978.8146
2022-09-14T06:42:00.835Z,978.7632
2022-09-14T06:43:01.010Z,978.8352
2022-09-14T06:44:01.131Z,978.9514
2022-09-14T06:45:00.291Z,978.6984
2022-09-14T06:46:00.450Z,978.8933
2022-09-14T06:47:00.597Z,978.6542
2022-09-14T06:48:00.765Z,978.7995
2022-09-14T06:49:00.895Z,978.9224
2022-09-14T06:50:01.035Z,978.7771
2022-09-14T06:51:01.182Z,978.7765
2022-09-14T06:52:00.342Z,978.7838
2022-09-14T06:53:00.478Z,978.8055
2022-09-14T06:54:00.648Z,978.8419
2022-09-14T06:55:00.785Z,978.7838
2022-09-14T06:56:00.935Z,978.6893
2022-09-14T06:57:01.089Z,978.9351
2022-09-14T06:58:01.272Z,978.877
2022-09-14T06:59:00.394Z,978.906
2022-09-14T07:00:00.544Z,978.8255
2022-09-14T07:01:00.692Z,978.9127
2022-09-14T07:02:00.828Z,978.8685
2022-09-14T07:03:01.077Z,978.788
2022-09-14T07:04:01.123Z,978.9981
2022-09-14T07:05:00.262Z,978.9599
2022-09-14T07:06:00.411Z,978.8146
2022-09-14T07:07:00.547Z,978.9085
2022-09-14T07:08:00.723Z,978.9085
2022-09-14T07:09:00.867Z,978.7995
2022-09-14T07:10:00.993Z,978.7413
2022-09-14T07:11:01.143Z,978.8419
2022-09-14T07:12:00.290Z,978.9351
2022-09-14T07:13:00.440Z,978.8776
2022-09-14T07:14:00.602Z,978.7898
2022-09-14T07:15:00.732Z,978.949
2022-09-14T07:16:00.881Z,978.92
2022-09-14T07:17:01.022Z,978.8752
2022-09-14T07:18:01.172Z,978.7661
2022-09-14T07:19:00.336Z,978.9182
2022-09-14T07:20:00.572Z,978.8376
2022-09-14T07:21:05.275Z,978.8733
2022-09-14T07:22:00.750Z,978.8733
2022-09-14T07:23:00.901Z,978.7928
2022-09-14T07:24:01.065Z,978.9521
2022-09-14T07:25:01.218Z,978.9521
2022-09-14T07:26:00.347Z,978.8134
2022-09-14T07:27:00.486Z,978.7195
2022-09-14T07:28:00.639Z,978.8134
2022-09-14T07:29:00.787Z,978.7328
2022-09-14T07:30:00.949Z,978.791
2022-09-14T07:31:01.235Z,979.0308
2022-09-14T07:32:01.221Z,978.8564
2022-09-14T07:33:00.365Z,978.8564
2022-09-14T07:34:00.511Z,978.6819
2022-09-14T07:35:00.664Z,978.8624
2022-09-14T07:36:00.819Z,978.8624
2022-09-14T07:37:00.963Z,978.8043
2022-09-14T07:38:01.095Z,978.7891
2022-09-14T07:39:01.239Z,978.8249
2022-09-14T07:40:00.471Z,978.8679
2022-09-14T07:41:00.556Z,978.8739
2022-09-14T07:42:00.683Z,979.0484
2022-09-14T07:43:00.841Z,978.9394
2022-09-14T07:44:00.985Z,978.8945
2022-09-14T07:45:01.130Z,978.8945
2022-09-14T07:46:00.340Z,979.0376
2022-09-14T07:47:00.443Z,979.0303
2022-09-14T07:48:00.574Z,978.9588
2022-09-14T07:49:00.719Z,978.9879
2022-09-14T07:50:00.886Z,979.0303
2022-09-14T07:51:01.027Z,978.9588
2022-09-14T07:52:01.177Z,978.7552
2022-09-14T07:53:00.344Z,978.8915
2022-09-14T07:54:00.480Z,979.1449
2022-09-14T07:55:00.624Z,978.7667
2022-09-14T07:56:00.775Z,978.8097
2022-09-14T07:57:00.919Z,978.8157
2022-09-14T07:58:01.086Z,978.8515
2022-09-14T07:59:23.802Z,978.8655
2022-09-14T08:00:00.386Z,978.9437
2022-09-14T08:01:00.589Z,978.9146
2022-09-14T08:02:00.777Z,978.7757
2022-09-14T08:03:00.814Z,978.7539
2022-09-14T08:04:05.194Z,978.8836
2022-09-14T08:05:01.123Z,978.7381
2022-09-14T08:06:00.250Z,978.7806
2022-09-14T08:07:00.400Z,978.8812
2022-09-14T08:08:00.541Z,978.8436
2022-09-14T08:09:00.696Z,978.7854
2022-09-14T08:10:00.881Z,978.7915
2022-09-14T08:11:00.989Z,978.7405
2022-09-14T08:12:01.138Z,978.857
2022-09-14T08:13:00.288Z,978.7624
2022-09-14T08:14:00.443Z,978.7781
2022-09-14T08:15:00.616Z,978.7915
2022-09-14T08:16:00.749Z,978.8497
2022-09-14T08:17:00.966Z,978.8636
2022-09-14T08:18:01.029Z,978.9576
2022-09-14T08:19:01.175Z,978.8994
2022-09-14T08:20:00.336Z,978.8054
2022-09-14T08:21:00.470Z,978.8345
2022-09-14T08:22:00.614Z,978.8703
2022-09-14T08:23:00.773Z,978.9061
2022-09-14T08:24:00.937Z,978.8703
2022-09-14T08:25:01.091Z,978.8861
2022-09-14T08:26:01.231Z,978.877
2022-09-14T08:27:00.375Z,978.8479
2022-09-14T08:28:00.513Z,978.8042
2022-09-14T08:29:00.647Z,978.8327
2022-09-14T08:30:00.826Z,978.7235
2022-09-14T08:31:00.952Z,978.7817
2022-09-14T08:32:01.162Z,978.6871
2022-09-14T08:33:01.981Z,978.7884
2022-09-14T08:34:00.390Z,978.6071
2022-09-14T08:35:00.567Z,978.6071
2022-09-14T08:36:00.692Z,978.7593
2022-09-14T08:37:00.844Z,978.7593
2022-09-14T08:38:00.994Z,978.746
2022-09-14T08:39:01.112Z,978.6732
2022-09-14T08:40:00.372Z,978.8345
2022-09-14T08:41:00.418Z,978.8345
2022-09-14T08:42:00.559Z,978.783
2022-09-14T08:43:00.713Z,978.7763
2022-09-14T08:44:00.846Z,978.6732
2022-09-14T08:45:00.983Z,978.7896
2022-09-14T08:46:01.318Z,978.6653
2022-09-14T08:47:00.283Z,978.6429
2022-09-14T08:48:00.436Z,978.8175
2022-09-14T08:49:00.574Z,978.6429
2022-09-14T08:50:00.715Z,978.6714
2022-09-14T08:51:00.865Z,978.6429
2022-09-14T08:52:01.035Z,978.7144
2022-09-14T08:53:01.161Z,978.672
2022-09-14T08:54:00.315Z,978.7502
2022-09-14T08:55:00.465Z,978.6337
2022-09-14T08:56:00.619Z,978.6398
2022-09-14T08:57:00.784Z,978.7186
2022-09-14T08:58:00.917Z,978.6895
2022-09-14T08:59:01.064Z,978.7769
2022-09-14T09:00:01.222Z,978.573
2022-09-14T09:01:00.419Z,978.6604
2022-09-14T09:02:00.518Z,978.5797
2022-09-14T09:03:00.646Z,978.7544
2022-09-14T09:04:00.831Z,978.7186
2022-09-14T09:05:00.937Z,978.6022
2022-09-14T09:06:01.088Z,978.7253
2022-09-14T09:07:01.255Z,978.6895
2022-09-14T09:08:00.365Z,978.806
2022-09-14T09:09:00.517Z,978.459
2022-09-14T09:10:00.688Z,978.6604
2022-09-14T09:11:00.821Z,978.6895
2022-09-14T09:12:00.981Z,978.5816
2022-09-14T09:13:01.099Z,978.6604
2022-09-14T09:14:01.256Z,978.6604
2022-09-14T09:15:00.397Z,978.7769
2022-09-14T09:16:00.599Z,978.7186
2022-09-14T09:17:00.735Z,978.7253
2022-09-14T09:18:00.853Z,978.5215
2022-09-14T09:19:01.010Z,978.5639
2022-09-14T09:20:01.151Z,978.6646
2022-09-14T09:21:00.309Z,978.6422
2022-09-14T09:22:00.489Z,978.6494
2022-09-14T09:23:00.604Z,978.4325
2022-09-14T09:24:00.758Z,978.4325
2022-09-14T09:25:00.895Z,978.4947
2022-09-14T09:26:01.051Z,978.4516
2022-09-14T09:27:01.211Z,978.4947
2022-09-14T09:28:00.345Z,978.5013
2022-09-14T09:29:00.483Z,978.424
2022-09-14T09:30:00.622Z,978.4498
2022-09-14T09:31:00.804Z,978.4855
2022-09-14T09:32:01.014Z,978.5729
2022-09-14T09:33:01.076Z,978.6021
2022-09-14T09:34:01.233Z,978.6087
2022-09-14T09:35:00.368Z,978.4989
2022-09-14T09:36:00.516Z,978.5571
2022-09-14T09:37:00.669Z,978.4479
2022-09-14T09:38:00.812Z,978.4618
2022-09-14T09:39:04.971Z,978.5201
2022-09-14T09:40:01.153Z,978.5195
2022-09-14T09:41:01.240Z,978.3614
2022-09-14T09:42:00.387Z,978.368
2022-09-14T09:43:00.531Z,978.3972
2022-09-14T09:44:00.695Z,978.4469
2022-09-14T09:45:02.603Z,978.402
2022-09-14T09:46:00.977Z,978.4994
2022-09-14T09:47:01.223Z,978.3485
2022-09-14T09:48:00.266Z,978.5466
2022-09-14T09:49:00.431Z,978.5466
2022-09-14T09:50:00.575Z,978.4586
2022-09-14T09:51:00.708Z,978.495
2022-09-14T09:52:00.851Z,978.4877
2022-09-14T09:53:05.999Z,978.4592
2022-09-14T09:54:01.149Z,978.5466
2022-09-14T09:55:00.337Z,978.4109
2022-09-14T09:56:00.461Z,978.3951
2022-09-14T09:57:00.612Z,978.4449
2022-09-14T09:58:00.751Z,978.4707
2022-09-14T09:59:00.885Z,978.4998
2022-09-14T10:00:01.029Z,978.3999
2022-09-14T10:01:01.345Z,978.5557
2022-09-14T10:02:00.348Z,978.5988
2022-09-14T10:03:00.444Z,978.4339
2022-09-14T10:04:00.599Z,978.473
2022-09-14T10:05:00.745Z,978.3797
2022-09-14T10:06:00.922Z,978.3645
2022-09-14T10:07:01.043Z,978.442
2022-09-14T10:08:01.194Z,978.5653
2022-09-14T10:09:00.346Z,978.3287
2022-09-14T10:10:00.494Z,978.4487
2022-09-14T10:11:00.673Z,978.6011
2022-09-14T10:12:00.793Z,978.407
2022-09-14T10:13:00.943Z,978.3779
2022-09-14T10:14:01.094Z,978.6084
2022-09-14T10:15:01.248Z,978.3779
2022-09-14T10:16:00.446Z,978.5653
2022-09-14T10:17:00.528Z,978.5137
2022-09-14T10:18:00.683Z,978.6084
2022-09-14T10:19:00.831Z,978.4004
2022-09-14T10:20:00.980Z,978.4362
2022-09-14T10:21:01.151Z,978.5501
2022-09-14T10:22:00.273Z,978.462
2022-09-14T10:23:00.415Z,978.4626
2022-09-14T10:24:00.565Z,978.4435
2022-09-14T10:25:00.713Z,978.4401
2022-09-14T10:26:00.892Z,978.4468
2022-09-14T10:27:01.017Z,978.4985
2022-09-14T10:28:01.181Z,978.421
2022-09-14T10:29:00.321Z,978.4826
2022-09-14T10:30:00.467Z,978.4826
2022-09-14T10:31:00.746Z,978.421
2022-09-14T10:32:00.761Z,978.4401
2022-09-14T10:33:00.909Z,978.5185
2022-09-14T10:34:01.046Z,978.5185
2022-09-14T10:35:01.203Z,978.4826
2022-09-14T10:36:00.369Z,978.4693
2022-09-14T10:37:00.508Z,978.3852
2022-09-14T10:38:00.647Z,978.4295
2022-09-14T10:39:00.800Z,978.4004
2022-09-14T10:40:01.066Z,978.3852
2022-09-14T10:41:01.127Z,978.2996
2022-09-14T10:43:00.348Z,978.342
2022-09-14T10:44:00.495Z,978.342
2022-09-14T10:45:00.640Z,978.3243
2022-09-14T10:46:00.879Z,978.1785
2022-09-14T10:47:04.573Z,978.091
2022-09-14T10:48:01.096Z,978.0977
2022-09-14T10:49:01.246Z,978.1852
2022-09-14T10:50:00.396Z,978.331
2022-09-14T10:51:00.531Z,978.091
2022-09-14T10:52:00.685Z,978.2793
2022-09-14T10:53:00.837Z,978.1852
2022-09-14T10:54:01.041Z,978.1991
2022-09-14T10:55:01.133Z,978.2502
2022-09-14T10:56:00.277Z,978.17
2022-09-14T10:57:00.422Z,978.4033
2022-09-14T10:58:00.593Z,978.2575
2022-09-14T10:59:00.712Z,978.221
2022-09-14T11:00:00.861Z,978.4385
2022-09-14T11:01:01.002Z,978.3
2022-09-14T11:02:01.323Z,978.3741
2022-09-14T11:03:00.428Z,978.4868
2022-09-14T11:04:00.437Z,978.17
2022-09-14T11:05:00.576Z,978.4458
2022-09-14T11:06:00.721Z,978.3158
2022-09-14T11:07:00.866Z,978.3668
2022-09-14T11:08:01.024Z,978.2435
2022-09-14T11:09:01.187Z,978.331
2022-09-14T11:10:00.297Z,978.1335
2022-09-14T11:11:00.445Z,978.1627
2022-09-14T11:12:00.601Z,978.1269
2022-09-14T11:13:00.752Z,978.17
2022-09-14T11:14:00.915Z,978.1516
2022-09-14T11:15:01.053Z,978.2518
2022-09-14T11:16:01.298Z,978.1558
2022-09-14T11:17:00.323Z,978.2274
2022-09-14T11:18:00.469Z,978.1107
2022-09-14T11:19:00.621Z,978.1241
2022-09-14T11:20:00.791Z,978.1666
2022-09-14T11:21:00.915Z,978.0572
2022-09-14T11:22:01.055Z,978.0524
2022-09-14T11:23:01.196Z,978.1824
2022-09-14T11:24:00.344Z,978.1532
2022-09-14T11:25:00.514Z,978.1824
2022-09-14T11:26:00.642Z,978.1314
2022-09-14T11:27:00.786Z,978.2116
2022-09-14T11:28:00.945Z,978.1824
2022-09-14T11:29:01.089Z,978.2249
2022-09-14T11:30:01.265Z,978.1514
2022-09-14T11:31:00.509Z,978.158
2022-09-14T11:32:19.794Z,978.0838
2022-09-14T11:33:00.672Z,978.1495
2022-09-14T11:34:00.822Z,978.1336
2022-09-14T11:35:01.001Z,978.001
2022-09-14T11:36:01.128Z,977.9706
2022-09-14T11:37:00.270Z,978.0933
2022-09-14T11:38:00.436Z,978.0689
2022-09-14T11:39:04.706Z,977.9522
2022-09-14T11:40:00.747Z,977.9236
2022-09-14T11:41:00.850Z,977.9522
2022-09-14T11:42:01.005Z,977.8408
2022-09-14T11:43:01.141Z,977.7951
2022-09-14T11:44:00.295Z,977.75
2022-09-14T11:45:00.463Z,977.8715
2022-09-14T11:46:00.635Z,977.8284
2022-09-14T11:47:01.113Z,977.9744
2022-09-14T11:48:00.906Z,977.9007
2022-09-14T11:49:01.038Z,977.9426
2022-09-14T11:50:01.211Z,977.914